createdAt,value
2017-12-01T00:02:10.716Z,26.92
2017-12-01T00:04:38.244Z,26.27
2017-12-01T00:07:05.924Z,26.90
2017-12-01T00:09:33.448Z,26.62
2017-12-01T00:12:01.740Z,25.35
2017-12-01T00:14:29.312Z,26.40
2017-12-01T00:16:56.836Z,25.95
2017-12-01T00:19:34.600Z,24.92
2017-12-01T00:22:02.146Z,26.37
2017-12-01T00:24:29.678Z,26.65
2017-12-01T00:26:57.254Z,26.20
2017-12-01T00:29:25.810Z,25.70
2017-12-01T00:31:54.103Z,27.13
2017-12-01T00:34:21.674Z,27.90
2017-12-01T00:36:49.206Z,27.70
2017-12-01T00:39:18.243Z,27.83
2017-12-01T00:41:45.772Z,26.98
2017-12-01T00:44:13.295Z,26.10
2017-12-01T00:46:40.889Z,26.10
2017-12-01T00:49:08.422Z,26.05
2017-12-01T00:51:36.720Z,26.40
2017-12-01T00:54:04.367Z,25.25
2017-12-01T00:56:32.944Z,26.52
2017-12-01T00:59:01.245Z,31.10
2017-12-01T01:01:28.840Z,29.20
2017-12-01T01:03:56.378Z,27.10
2017-12-01T01:06:23.912Z,27.15
2017-12-01T01:08:52.244Z,27.00
2017-12-01T01:11:19.875Z,28.83
2017-12-01T01:13:47.411Z,27.92
2017-12-01T01:16:15.742Z,26.87
2017-12-01T01:18:43.276Z,26.33
2017-12-01T01:21:10.842Z,27.90
2017-12-01T01:23:38.414Z,29.20
2017-12-01T01:26:05.945Z,28.23
2017-12-01T01:28:33.663Z,29.40
2017-12-01T01:31:01.187Z,28.25
2017-12-01T01:33:28.751Z,26.10
2017-12-01T01:35:56.284Z,26.15
2017-12-01T01:38:23.852Z,25.02
2017-12-01T01:40:51.388Z,25.48
2017-12-01T01:43:19.840Z,26.37
2017-12-01T01:45:47.373Z,26.15
2017-12-01T01:48:14.901Z,25.95
2017-12-01T01:50:42.588Z,25.52
2017-12-01T01:53:10.121Z,26.70
2017-12-01T01:55:37.920Z,26.37
2017-12-01T01:58:05.439Z,24.90
2017-12-01T02:00:33.808Z,24.75
2017-12-01T02:03:11.134Z,23.85
2017-12-01T02:05:39.016Z,24.50
2017-12-01T02:08:06.552Z,25.35
2017-12-01T02:10:34.076Z,24.75
2017-12-01T02:13:05.076Z,24.95
2017-12-01T02:15:32.753Z,24.87
2017-12-01T02:18:00.278Z,24.58
2017-12-01T02:20:27.844Z,25.60
2017-12-01T02:22:55.423Z,25.88
2017-12-01T02:25:22.987Z,25.20
2017-12-01T02:27:50.591Z,24.85
2017-12-01T02:30:18.902Z,25.88
2017-12-01T02:32:46.652Z,26.00
2017-12-01T02:35:18.106Z,25.90
2017-12-01T02:37:45.641Z,24.87
2017-12-01T02:40:13.937Z,27.20
2017-12-01T02:42:41.512Z,26.05
2017-12-01T02:45:09.069Z,25.52
2017-12-01T02:47:36.639Z,25.05
2017-12-01T02:50:04.163Z,25.52
2017-12-01T02:52:32.695Z,25.65
2017-12-01T02:55:00.260Z,24.70
2017-12-01T02:57:27.845Z,26.58
2017-12-01T02:59:55.457Z,27.62
2017-12-01T03:02:23.760Z,24.63
2017-12-01T03:04:51.280Z,26.23
2017-12-01T03:07:18.839Z,27.00
2017-12-01T03:09:46.363Z,25.50
2017-12-01T03:12:14.195Z,24.50
2017-12-01T03:14:41.724Z,25.10
2017-12-01T03:17:09.315Z,25.42
2017-12-01T03:19:36.837Z,25.12
2017-12-01T03:22:04.382Z,25.60
2017-12-01T03:24:32.744Z,25.85
2017-12-01T03:27:00.279Z,26.58
2017-12-01T03:29:27.795Z,25.80
2017-12-01T03:31:55.469Z,25.62
2017-12-01T03:34:22.997Z,26.25
2017-12-01T03:36:51.292Z,24.87
2017-12-01T03:39:18.866Z,25.60
2017-12-01T03:41:46.392Z,24.12
2017-12-01T03:44:14.728Z,24.52
2017-12-01T03:46:42.256Z,25.50
2017-12-01T03:49:10.029Z,24.08
2017-12-01T03:51:38.323Z,24.70
2017-12-01T03:54:05.921Z,26.65
2017-12-01T03:56:34.223Z,25.98
2017-12-01T03:59:02.524Z,26.95
2017-12-01T04:01:30.107Z,25.73
2017-12-01T04:03:57.643Z,25.83
2017-12-01T04:06:25.494Z,25.10
2017-12-01T04:08:53.020Z,25.50
2017-12-01T04:11:20.615Z,25.17
2017-12-01T04:13:48.171Z,24.58
2017-12-01T04:16:15.707Z,25.75
2017-12-01T04:18:44.390Z,24.85
2017-12-01T04:21:12.691Z,24.05
2017-12-01T04:23:40.224Z,22.90
2017-12-01T04:26:07.937Z,24.67
2017-12-01T04:28:36.295Z,23.77
2017-12-01T04:31:03.821Z,24.15
2017-12-01T04:33:31.383Z,24.55
2017-12-01T04:36:00.719Z,23.25
2017-12-01T04:38:28.240Z,23.25
2017-12-01T04:40:55.772Z,24.08
2017-12-01T04:43:23.624Z,22.08
2017-12-01T04:45:51.196Z,23.80
2017-12-01T04:48:18.724Z,23.92
2017-12-01T04:50:46.332Z,24.67
2017-12-01T04:53:13.860Z,23.98
2017-12-01T04:55:43.934Z,23.15
2017-12-01T04:58:12.267Z,24.12
2017-12-01T05:00:40.338Z,24.25
2017-12-01T05:03:09.864Z,25.30
2017-12-01T05:05:37.392Z,24.30
2017-12-01T05:08:04.956Z,24.87
2017-12-01T05:10:33.287Z,23.98
2017-12-01T05:13:01.588Z,24.58
2017-12-01T05:15:29.329Z,24.35
2017-12-01T05:17:57.619Z,25.02
2017-12-01T05:20:25.912Z,25.10
2017-12-01T05:22:53.486Z,23.95
2017-12-01T05:25:21.088Z,23.73
2017-12-01T05:27:48.620Z,24.75
2017-12-01T05:30:16.148Z,23.60
2017-12-01T05:32:43.759Z,24.77
2017-12-01T05:35:11.296Z,23.17
2017-12-01T05:37:38.928Z,24.37
2017-12-01T05:40:06.451Z,24.55
2017-12-01T05:42:34.017Z,23.98
2017-12-01T05:45:01.544Z,23.45
2017-12-01T05:47:29.177Z,25.50
2017-12-01T05:50:01.586Z,23.75
2017-12-01T05:52:29.163Z,25.45
2017-12-01T05:54:56.692Z,24.25
2017-12-01T05:57:24.360Z,24.92
2017-12-01T05:59:51.920Z,24.05
2017-12-01T06:02:19.479Z,24.52
2017-12-01T06:04:52.250Z,25.23
2017-12-01T06:07:19.778Z,24.33
2017-12-01T06:09:47.312Z,23.87
2017-12-01T06:12:14.883Z,22.37
2017-12-01T06:14:43.192Z,23.40
2017-12-01T06:17:10.760Z,24.85
2017-12-01T06:19:38.475Z,22.65
2017-12-01T06:22:06.770Z,24.50
2017-12-01T06:24:34.304Z,22.80
2017-12-01T06:27:01.909Z,24.80
2017-12-01T06:29:29.448Z,24.90
2017-12-01T06:32:15.372Z,26.37
2017-12-01T06:34:42.904Z,37.95
2017-12-01T06:37:10.752Z,31.30
2017-12-01T06:39:39.043Z,26.25
2017-12-01T06:42:07.375Z,28.35
2017-12-01T06:44:36.245Z,23.85
2017-12-01T06:47:03.778Z,23.33
2017-12-01T06:49:31.307Z,24.70
2017-12-01T06:51:58.871Z,23.85
2017-12-01T06:54:28.743Z,105.65
2017-12-01T06:56:56.276Z,47.25
2017-12-01T06:59:24.293Z,31.25
2017-12-01T07:01:51.832Z,26.92
2017-12-01T07:04:19.364Z,48.50
2017-12-01T07:06:46.960Z,61.37
2017-12-01T07:09:15.736Z,38.30
2017-12-01T07:11:43.385Z,31.55
2017-12-01T07:14:10.919Z,24.37
2017-12-01T07:16:39.257Z,24.70
2017-12-01T07:19:06.857Z,25.40
2017-12-01T07:21:35.149Z,23.98
2017-12-01T07:24:02.684Z,23.60
2017-12-01T07:26:42.784Z,24.95
2017-12-01T07:29:10.650Z,24.92
2017-12-01T07:31:38.181Z,25.30
2017-12-01T07:34:05.711Z,26.40
2017-12-01T07:36:33.295Z,23.42
2017-12-01T07:39:01.661Z,25.05
2017-12-01T07:41:29.960Z,24.67
2017-12-01T07:43:57.512Z,26.60
2017-12-01T07:46:25.316Z,24.60
2017-12-01T07:48:52.925Z,25.55
2017-12-01T07:51:21.221Z,27.13
2017-12-01T07:53:48.788Z,29.77
2017-12-01T07:56:16.403Z,26.33
2017-12-01T07:58:43.987Z,29.67
2017-12-01T08:01:13.065Z,28.52
2017-12-01T08:03:40.608Z,25.35
2017-12-01T08:06:08.242Z,26.33
2017-12-01T08:08:35.913Z,24.15
2017-12-01T08:11:04.745Z,25.33
2017-12-01T08:13:33.057Z,26.00
2017-12-01T08:16:12.700Z,24.77
2017-12-01T08:18:48.939Z,26.85
2017-12-01T08:24:36.889Z,24.55
2017-12-01T08:27:05.444Z,26.73
2017-12-01T08:29:32.983Z,24.50
2017-12-01T08:32:00.597Z,26.23
2017-12-01T08:34:28.897Z,25.00
2017-12-01T08:36:59.663Z,24.08
2017-12-01T08:39:27.247Z,23.33
2017-12-01T08:41:54.779Z,25.77
2017-12-01T08:44:22.701Z,24.77
2017-12-01T08:46:51.023Z,26.65
2017-12-01T08:49:19.811Z,27.52
2017-12-01T08:51:47.356Z,26.23
2017-12-01T08:54:14.949Z,27.20
2017-12-01T08:56:42.492Z,30.73
2017-12-01T08:59:10.036Z,24.45
2017-12-01T09:01:38.752Z,25.02
2017-12-01T09:04:06.292Z,24.83
2017-12-01T09:06:33.941Z,25.75
2017-12-01T09:09:01.479Z,24.55
2017-12-01T09:11:29.844Z,24.48
2017-12-01T09:13:57.367Z,24.65
2017-12-01T09:16:24.941Z,25.67
2017-12-01T09:18:52.483Z,26.92
2017-12-01T09:21:20.359Z,27.40
2017-12-01T09:23:47.892Z,26.80
2017-12-01T09:26:15.471Z,27.05
2017-12-01T09:28:43.015Z,27.42
2017-12-01T09:31:11.603Z,27.35
2017-12-01T09:33:39.148Z,28.20
2017-12-01T09:36:06.708Z,27.83
2017-12-01T09:38:34.557Z,28.65
2017-12-01T09:41:02.843Z,28.10
2017-12-01T09:43:30.384Z,27.60
2017-12-01T09:46:01.764Z,28.27
2017-12-01T09:48:30.069Z,27.83
2017-12-01T09:50:57.616Z,28.50
2017-12-01T09:53:25.195Z,29.45
2017-12-01T09:55:52.899Z,26.37
2017-12-01T09:58:20.553Z,29.30
2017-12-01T10:00:48.876Z,30.55
2017-12-01T10:03:27.351Z,29.70
2017-12-01T10:05:55.714Z,29.02
2017-12-01T10:08:24.758Z,29.15
2017-12-01T10:10:52.328Z,31.27
2017-12-01T10:13:20.088Z,29.02
2017-12-01T10:15:47.719Z,26.80
2017-12-01T10:18:33.465Z,32.80
2017-12-01T10:21:01.052Z,22.77
2017-12-01T10:23:29.369Z,27.62
2017-12-01T10:25:56.952Z,23.90
2017-12-01T10:28:26.477Z,21.37
2017-12-01T10:30:54.255Z,25.85
2017-12-01T10:33:21.785Z,20.70
2017-12-01T10:35:49.369Z,18.90
2017-12-01T10:38:16.908Z,20.45
2017-12-01T10:40:44.454Z,21.75
2017-12-01T10:43:12.080Z,19.42
2017-12-01T10:45:49.429Z,19.60
2017-12-01T11:02:39.720Z,20.62
2017-12-01T11:05:07.267Z,20.77
2017-12-01T11:07:34.981Z,19.92
2017-12-01T11:10:02.527Z,20.58
2017-12-01T11:15:24.004Z,19.35
2017-12-01T11:17:54.075Z,19.10
2017-12-01T11:20:22.395Z,18.48
2017-12-01T11:22:49.941Z,19.08
2017-12-01T11:25:21.224Z,18.75
2017-12-01T11:27:48.765Z,17.58
2017-12-01T11:30:21.548Z,17.83
2017-12-01T11:32:49.089Z,17.87
2017-12-01T11:35:16.624Z,18.87
2017-12-01T11:37:46.496Z,17.55
2017-12-01T11:40:14.087Z,19.58
2017-12-01T11:42:41.620Z,18.23
2017-12-01T11:45:09.219Z,18.23
2017-12-01T11:47:36.756Z,17.48
2017-12-01T11:50:04.297Z,16.45
2017-12-01T11:52:42.780Z,17.65
2017-12-01T11:55:10.318Z,17.62
2017-12-01T11:57:44.068Z,17.37
2017-12-01T12:00:11.636Z,16.60
2017-12-01T12:02:43.104Z,19.48
2017-12-01T12:05:14.780Z,18.05
2017-12-01T12:07:43.843Z,25.05
2017-12-01T12:10:11.401Z,16.95
2017-12-01T12:12:38.998Z,18.77
2017-12-01T12:15:07.301Z,19.77
2017-12-01T12:17:34.848Z,16.20
2017-12-01T12:20:03.472Z,16.83
2017-12-01T12:22:31.008Z,17.85
2017-12-01T12:24:58.552Z,17.02
2017-12-01T12:27:26.929Z,17.65
2017-12-01T12:29:55.227Z,17.15
2017-12-01T12:32:22.784Z,14.95
2017-12-01T12:34:50.384Z,13.80
2017-12-01T12:37:17.915Z,12.65
2017-12-01T12:40:06.478Z,14.00
2017-12-01T12:42:34.014Z,14.27
2017-12-01T12:45:01.621Z,12.90
2017-12-01T12:47:29.156Z,12.75
2017-12-01T12:49:56.717Z,13.20
2017-12-01T12:52:25.368Z,13.35
2017-12-01T12:54:53.669Z,12.98
2017-12-01T12:57:21.199Z,12.75
2017-12-01T12:59:49.684Z,13.60
2017-12-01T13:02:18.028Z,13.50
2017-12-01T13:04:45.576Z,14.40
2017-12-01T13:07:13.428Z,15.50
2017-12-01T13:09:41.725Z,13.90
2017-12-01T13:12:09.320Z,15.65
2017-12-01T13:14:37.616Z,16.77
2017-12-01T13:17:11.514Z,15.20
2017-12-01T13:19:39.082Z,16.50
2017-12-01T13:22:06.664Z,18.50
2017-12-01T13:24:34.192Z,19.05
2017-12-01T13:27:02.567Z,16.80
2017-12-01T13:29:30.957Z,17.60
2017-12-01T13:31:59.264Z,18.15
2017-12-01T13:34:26.802Z,17.62
2017-12-01T13:36:54.597Z,18.98
2017-12-01T13:39:22.138Z,16.58
2017-12-01T13:41:49.700Z,17.17
2017-12-01T13:44:17.302Z,20.65
2017-12-01T13:46:45.008Z,20.00
2017-12-01T13:49:12.544Z,18.92
2017-12-01T13:51:40.848Z,19.95
2017-12-01T13:54:08.672Z,19.20
2017-12-01T13:56:36.354Z,20.25
2017-12-01T13:59:04.652Z,19.83
2017-12-01T14:01:32.232Z,19.77
2017-12-01T14:03:59.768Z,19.33
2017-12-01T14:06:29.823Z,19.75
2017-12-01T14:08:58.327Z,19.62
2017-12-01T14:11:25.968Z,21.90
2017-12-01T14:13:53.539Z,21.42
2017-12-01T14:16:24.720Z,22.73
2017-12-01T14:18:53.061Z,21.05
2017-12-01T14:21:20.648Z,22.48
2017-12-01T14:23:48.960Z,23.10
2017-12-01T14:26:16.569Z,22.10
2017-12-01T14:28:44.108Z,22.60
2017-12-01T14:31:11.655Z,23.55
2017-12-01T14:33:40.515Z,24.70
2017-12-01T14:36:08.061Z,23.52
2017-12-01T14:38:36.366Z,21.58
2017-12-01T14:41:03.978Z,23.48
2017-12-01T14:43:31.527Z,22.50
2017-12-01T14:46:01.108Z,25.37
2017-12-01T14:48:28.640Z,21.62
2017-12-01T14:50:57.263Z,22.20
2017-12-01T14:53:24.795Z,22.87
2017-12-01T14:56:02.588Z,23.23
2017-12-01T14:58:30.151Z,22.05
2017-12-01T15:00:57.697Z,23.75
2017-12-01T15:03:26.164Z,28.17
2017-12-01T15:05:53.712Z,22.58
2017-12-01T15:08:25.057Z,21.77
2017-12-01T15:10:52.923Z,21.95
2017-12-01T15:13:20.456Z,22.70
2017-12-01T15:15:48.041Z,23.20
2017-12-01T15:18:15.585Z,22.92
2017-12-01T15:20:43.146Z,23.75
2017-12-01T15:26:12.654Z,23.55
2017-12-01T15:28:40.285Z,23.25
2017-12-01T15:31:08.624Z,23.87
2017-12-01T15:33:42.912Z,23.95
2017-12-01T15:36:10.892Z,24.92
2017-12-01T15:38:38.420Z,24.08
2017-12-01T15:41:05.953Z,27.25
2017-12-01T15:43:34.300Z,25.08
2017-12-01T15:46:01.837Z,26.98
2017-12-01T15:48:30.089Z,27.33
2017-12-01T15:50:57.625Z,27.62
2017-12-01T15:53:27.926Z,25.77
2017-12-01T15:55:58.240Z,28.30
2017-12-01T15:58:25.818Z,26.85
2017-12-01T16:00:53.356Z,27.48
2017-12-01T16:03:20.980Z,28.10
2017-12-01T16:05:48.520Z,26.87
2017-12-01T16:08:18.864Z,29.40
2017-12-01T16:10:46.400Z,28.02
2017-12-01T16:13:14.843Z,28.33
2017-12-01T16:15:42.424Z,28.75
2017-12-01T16:18:09.959Z,28.15
2017-12-01T16:20:37.573Z,31.83
2017-12-01T16:23:05.103Z,28.55
2017-12-01T16:25:32.634Z,29.75
2017-12-01T16:28:00.308Z,28.33
2017-12-01T16:30:27.844Z,29.80
2017-12-01T16:33:00.283Z,43.25
2017-12-01T16:35:23.100Z,30.88
2017-12-01T16:37:50.656Z,29.27
2017-12-01T16:40:18.193Z,30.35
2017-12-01T16:42:45.792Z,29.12
2017-12-01T16:45:13.323Z,30.58
2017-12-01T16:47:40.848Z,31.70
2017-12-01T16:50:08.536Z,30.08
2017-12-01T16:52:36.252Z,28.02
2017-12-01T16:55:04.610Z,29.70
2017-12-01T16:57:32.135Z,28.20
2017-12-01T17:00:00.502Z,31.10
2017-12-01T17:02:28.036Z,33.20
2017-12-01T17:04:56.329Z,36.92
2017-12-01T17:07:25.181Z,33.17
2017-12-01T17:09:52.768Z,30.20
2017-12-01T17:12:21.104Z,28.77
2017-12-01T17:14:52.565Z,28.92
2017-12-01T17:17:20.181Z,29.55
2017-12-01T17:19:47.712Z,30.20
2017-12-01T17:22:16.060Z,30.75
2017-12-01T17:24:43.597Z,33.45
2017-12-01T17:27:11.307Z,37.58
2017-12-01T17:29:39.609Z,36.63
2017-12-01T17:32:07.189Z,38.83
2017-12-01T17:34:34.728Z,33.47
2017-12-01T17:37:02.365Z,31.12
2017-12-01T17:39:30.672Z,28.77
2017-12-01T17:41:58.204Z,28.58
2017-12-01T17:44:26.692Z,29.75
2017-12-01T17:46:55.059Z,30.42
2017-12-01T17:49:23.368Z,29.35
2017-12-01T17:51:50.897Z,28.23
2017-12-01T17:54:19.236Z,30.35
2017-12-01T17:56:46.993Z,28.45
2017-12-01T17:59:14.573Z,31.30
2017-12-01T18:01:42.340Z,31.00
2017-12-01T18:04:09.890Z,36.25
2017-12-01T18:06:37.453Z,43.53
2017-12-01T18:09:07.191Z,36.65
2017-12-01T18:11:34.771Z,35.00
2017-12-01T18:14:03.063Z,34.83
2017-12-01T18:16:30.591Z,32.80
2017-12-01T18:18:59.241Z,33.58
2017-12-01T18:21:26.773Z,33.78
2017-12-01T18:23:55.795Z,34.45
2017-12-01T18:26:23.336Z,40.78
2017-12-01T18:28:50.865Z,35.45
2017-12-01T18:31:18.473Z,30.60
2017-12-01T18:33:46.014Z,33.13
2017-12-01T18:36:13.545Z,46.22
2017-12-01T18:38:41.987Z,35.25
2017-12-01T18:41:09.538Z,42.25
2017-12-01T18:43:37.124Z,38.85
2017-12-01T18:46:04.669Z,38.03
2017-12-01T18:48:32.201Z,39.15
2017-12-01T18:51:00.902Z,29.60
2017-12-01T18:53:28.593Z,31.60
2017-12-01T18:55:56.123Z,31.65
2017-12-01T18:58:23.794Z,37.42
2017-12-01T19:00:51.391Z,36.38
2017-12-01T19:03:21.689Z,33.97
2017-12-01T19:05:49.229Z,39.85
2017-12-01T19:08:17.096Z,40.95
2017-12-01T19:10:44.631Z,38.22
2017-12-01T19:13:14.253Z,34.13
2017-12-01T19:15:41.784Z,30.33
2017-12-01T19:18:09.318Z,29.83
2017-12-01T19:20:37.660Z,29.75
2017-12-01T19:23:05.194Z,29.55
2017-12-01T19:25:32.955Z,30.58
2017-12-01T19:28:00.532Z,31.05
2017-12-01T19:30:29.032Z,31.05
2017-12-01T19:32:56.641Z,32.35
2017-12-01T19:35:24.176Z,31.23
2017-12-01T19:37:51.752Z,31.85
2017-12-01T19:40:20.049Z,29.15
2017-12-01T19:42:48.960Z,30.48
2017-12-01T19:45:16.492Z,30.50
2017-12-01T19:47:44.021Z,30.83
2017-12-01T19:50:11.959Z,31.80
2017-12-01T19:52:39.492Z,29.80
2017-12-01T19:55:08.565Z,32.88
2017-12-01T19:57:36.902Z,33.88
2017-12-01T20:00:04.430Z,37.45
2017-12-01T20:02:32.161Z,35.05
2017-12-01T20:05:00.459Z,33.05
2017-12-01T20:07:27.992Z,34.30
2017-12-01T20:09:56.333Z,36.85
2017-12-01T20:12:32.885Z,35.47
2017-12-01T20:15:00.461Z,37.47
2017-12-01T20:17:27.998Z,34.35
2017-12-01T20:19:55.860Z,33.65
2017-12-01T20:22:23.408Z,34.10
2017-12-01T20:24:50.941Z,33.25
2017-12-01T20:27:18.547Z,31.75
2017-12-01T20:29:47.061Z,31.25
2017-12-01T20:32:14.591Z,34.30
2017-12-01T20:34:42.170Z,33.80
2017-12-01T20:37:09.700Z,31.85
2017-12-01T20:39:37.381Z,30.70
2017-12-01T20:42:04.980Z,34.15
2017-12-01T20:44:32.511Z,41.85
2017-12-01T20:47:00.046Z,43.60
2017-12-01T20:49:27.633Z,44.00
2017-12-01T20:51:55.176Z,44.13
2017-12-01T20:54:22.865Z,49.97
2017-12-01T20:56:50.600Z,64.25
2017-12-01T20:59:18.223Z,46.95
2017-12-01T21:01:46.542Z,43.08
2017-12-01T21:04:14.914Z,35.45
2017-12-01T21:06:42.464Z,32.03
2017-12-01T21:09:10.783Z,33.20
2017-12-01T21:11:39.868Z,35.40
2017-12-01T21:14:07.419Z,43.13
2017-12-01T21:16:35.005Z,40.33
2017-12-01T21:19:02.623Z,34.65
2017-12-01T21:21:30.172Z,36.30
2017-12-01T21:23:57.755Z,35.28
2017-12-01T21:26:25.296Z,35.30
2017-12-01T21:28:56.956Z,39.88
2017-12-01T21:31:24.491Z,34.45
2017-12-01T21:33:52.792Z,33.67
2017-12-01T21:36:20.368Z,37.78
2017-12-01T21:38:47.948Z,38.90
2017-12-01T21:41:15.505Z,36.88
2017-12-01T21:43:43.577Z,34.90
2017-12-01T21:46:11.157Z,36.17
2017-12-01T21:48:38.708Z,33.28
2017-12-01T21:51:06.304Z,33.38
2017-12-01T21:53:34.616Z,31.95
2017-12-01T21:56:02.452Z,30.77
2017-12-01T21:58:41.732Z,33.20
2017-12-01T22:01:09.436Z,31.77
2017-12-01T22:03:37.744Z,30.95
2017-12-01T22:06:05.281Z,31.08
2017-12-01T22:08:33.626Z,29.20
2017-12-01T22:11:01.232Z,30.77
2017-12-01T22:13:28.769Z,32.50
2017-12-01T22:15:57.072Z,32.88
2017-12-01T22:18:33.477Z,33.13
2017-12-01T22:21:02.437Z,33.67
2017-12-01T22:23:29.976Z,33.97
2017-12-01T22:25:58.272Z,32.03
2017-12-01T22:28:28.369Z,30.48
2017-12-01T22:30:56.131Z,29.87
2017-12-01T22:33:24.432Z,31.27
2017-12-01T22:35:52.158Z,32.35
2017-12-01T22:38:19.728Z,31.23
2017-12-01T22:40:48.032Z,31.08
2017-12-01T22:43:15.618Z,28.83
2017-12-01T22:45:43.157Z,32.03
2017-12-01T22:48:10.684Z,30.52
2017-12-01T22:50:39.024Z,30.75
2017-12-01T22:53:06.788Z,30.35
2017-12-01T22:55:34.317Z,29.37
2017-12-01T22:58:02.209Z,29.85
2017-12-01T23:00:29.746Z,29.95
2017-12-01T23:02:57.321Z,38.88
2017-12-01T23:05:27.879Z,30.42
2017-12-01T23:07:55.457Z,30.85
2017-12-01T23:10:22.988Z,29.45
2017-12-01T23:12:50.728Z,29.77
2017-12-01T23:15:18.260Z,30.67
2017-12-01T23:17:46.554Z,33.08
2017-12-01T23:20:14.125Z,31.15
2017-12-01T23:22:41.686Z,29.45
2017-12-01T23:25:12.536Z,28.27
2017-12-01T23:27:40.074Z,28.55
2017-12-01T23:30:07.807Z,28.30
2017-12-01T23:32:36.116Z,25.55
2017-12-01T23:35:04.640Z,26.83
2017-12-01T23:37:32.224Z,25.73
2017-12-01T23:40:00.593Z,26.67
2017-12-01T23:42:28.124Z,25.20
2017-12-01T23:44:55.807Z,26.48
2017-12-01T23:47:24.868Z,28.27
2017-12-01T23:49:52.447Z,24.98
2017-12-01T23:52:22.268Z,28.30
2017-12-01T23:54:49.800Z,28.35
2017-12-01T23:57:17.371Z,28.00
2017-12-01T23:59:44.945Z,27.02
